Time,TemperatureF,DewpointF,PressureIn,WindDirection,WindDirectionDegrees,WindSpeedMPH,WindSpeedGustMPH,Humidity,HourlyPrecipIn,Conditions,Clouds,dailyrainin,SoftwareType,DateUTC
2017-05-27 00:00:00,60.2,54.7,29.83,West,269,0.0,0.0,82,0.00,,,0.02,Wunderground v.1.15,2017-05-27 04:00:00,
2017-05-27 00:10:00,59.7,54.5,29.83,West,269,0.0,0.0,83,0.00,,,0.00,Wunderground v.1.15,2017-05-27 04:10:00,
2017-05-27 00:20:00,59.3,54.1,29.83,West,269,0.0,0.0,83,0.00,,,0.00,Wunderground v.1.15,2017-05-27 04:20:00,
2017-05-27 00:30:00,59.1,53.9,29.83,West,269,0.0,0.0,83,0.00,,,0.00,Wunderground v.1.15,2017-05-27 04:30:00,
2017-05-27 00:35:00,59.0,54.2,29.83,West,269,0.0,0.0,84,0.00,,,0.00,Wunderground v.1.15,2017-05-27 04:35:00,
2017-05-27 00:45:00,58.6,53.8,29.83,West,269,0.0,0.0,84,0.00,,,0.00,Wunderground v.1.15,2017-05-27 04:45:00,
2017-05-27 00:55:00,58.3,53.5,29.84,West,269,0.0,0.0,84,0.00,,,0.00,Wunderground v.1.15,2017-05-27 04:55:00,
2017-05-27 01:00:00,58.2,53.4,29.84,West,269,0.0,1.0,84,0.00,,,0.00,Wunderground v.1.15,2017-05-27 05:00:00,
2017-05-27 01:10:00,57.9,53.4,29.84,West,269,0.0,0.0,85,0.00,,,0.00,Wunderground v.1.15,2017-05-27 05:10:00,
2017-05-27 01:20:00,57.2,52.7,29.84,West,269,0.0,0.0,85,0.00,,,0.00,Wunderground v.1.15,2017-05-27 05:20:00,
2017-05-27 01:30:00,56.8,52.3,29.84,West,269,0.0,0.0,85,0.00,,,0.00,Wunderground v.1.15,2017-05-27 05:30:00,
2017-05-27 01:35:00,56.6,52.1,29.83,West,269,0.0,0.0,85,0.00,,,0.00,Wunderground v.1.15,2017-05-27 05:35:00,
2017-05-27 01:45:00,56.3,51.8,29.83,West,269,0.0,0.0,85,0.00,,,0.00,Wunderground v.1.15,2017-05-27 05:45:00,
2017-05-27 01:55:00,55.9,51.5,29.83,West,269,0.0,0.0,85,0.00,,,0.00,Wunderground v.1.15,2017-05-27 05:55:00,
2017-05-27 02:00:00,55.8,51.4,29.83,West,269,0.0,0.0,85,0.00,,,0.00,Wunderground v.1.15,2017-05-27 06:00:00,
2017-05-27 02:10:00,55.6,51.2,29.83,West,269,0.0,0.0,85,0.00,,,0.00,Wunderground v.1.15,2017-05-27 06:10:00,
2017-05-27 02:20:00,55.4,51.0,29.84,West,269,0.0,0.0,85,0.00,,,0.00,Wunderground v.1.15,2017-05-27 06:20:00,
2017-05-27 02:25:00,55.3,50.9,29.84,West,269,0.0,0.0,85,0.00,,,0.00,Wunderground v.1.15,2017-05-27 06:25:00,
2017-05-27 02:35:00,55.4,51.0,29.84,West,269,0.0,0.0,85,0.00,,,0.00,Wunderground v.1.15,2017-05-27 06:35:00,
2017-05-27 02:40:00,55.4,51.0,29.84,West,270,0.0,0.0,85,0.00,,,0.00,Wunderground v.1.15,2017-05-27 06:40:00,
2017-05-27 02:50:00,55.7,51.3,29.84,West,270,0.0,0.0,85,0.00,,,0.00,Wunderground v.1.15,2017-05-27 06:50:00,
2017-05-27 03:00:00,55.7,51.3,29.84,West,269,0.0,0.0,85,0.00,,,0.00,Wunderground v.1.15,2017-05-27 07:00:00,
2017-05-27 03:10:00,55.4,51.0,29.84,West,269,0.0,0.0,85,0.00,,,0.00,Wunderground v.1.15,2017-05-27 07:10:00,
2017-05-27 03:20:00,54.8,50.4,29.84,West,269,0.0,0.0,85,0.00,,,0.00,Wunderground v.1.15,2017-05-27 07:20:00,